createdAt,value
2018-06-16T00:01:38.996Z,99.90
2018-06-16T00:04:09.688Z,99.90
2018-06-16T00:06:40.420Z,99.90
2018-06-16T00:09:11.428Z,99.90
2018-06-16T00:11:42.104Z,99.90
2018-06-16T00:14:13.520Z,99.90
2018-06-16T00:16:44.208Z,99.90
2018-06-16T00:19:14.811Z,99.90
2018-06-16T00:21:45.316Z,99.90
2018-06-16T00:24:16.023Z,99.90
2018-06-16T00:29:20.817Z,99.90
2018-06-16T00:31:51.702Z,99.90
2018-06-16T00:34:22.301Z,99.90
2018-06-16T00:36:53.453Z,99.90
2018-06-16T00:39:24.153Z,99.90
2018-06-16T00:41:54.754Z,99.90
2018-06-16T00:44:25.239Z,99.90
2018-06-16T00:46:55.800Z,99.90
2018-06-16T00:49:26.495Z,99.90
2018-06-16T00:51:57.049Z,99.90
2018-06-16T00:54:27.821Z,99.90
2018-06-16T00:57:15.329Z,99.90
2018-06-16T00:59:45.866Z,99.90
2018-06-16T01:02:17.360Z,99.90
2018-06-16T01:04:48.070Z,99.90
2018-06-16T01:07:18.657Z,99.90
2018-06-16T01:09:49.469Z,99.90
2018-06-16T01:12:23.776Z,99.90
2018-06-16T01:14:54.588Z,99.90
2018-06-16T01:17:25.476Z,99.90
2018-06-16T01:19:57.869Z,99.90
2018-06-16T01:22:29.097Z,99.90
2018-06-16T01:24:59.942Z,99.90
2018-06-16T01:27:30.808Z,99.90
2018-06-16T01:30:01.771Z,99.90
2018-06-16T01:32:32.417Z,99.90
2018-06-16T01:35:03.508Z,99.90
2018-06-16T01:37:34.444Z,99.90
2018-06-16T01:40:05.117Z,99.90
2018-06-16T01:42:36.016Z,99.90
2018-06-16T01:45:06.714Z,99.90
2018-06-16T01:47:37.272Z,99.90
2018-06-16T01:50:07.918Z,99.90
2018-06-16T01:52:38.404Z,99.90
2018-06-16T01:55:09.086Z,99.90
2018-06-16T01:57:39.984Z,99.90
2018-06-16T02:00:11.545Z,99.90
2018-06-16T02:05:18.660Z,99.90
2018-06-16T02:07:49.192Z,99.90
2018-06-16T02:10:19.903Z,99.90
2018-06-16T02:12:50.392Z,99.90
2018-06-16T02:15:20.946Z,99.90
2018-06-16T02:17:51.601Z,99.90
2018-06-16T02:20:22.721Z,99.90
2018-06-16T02:22:53.563Z,99.90
2018-06-16T02:25:24.050Z,99.90
2018-06-16T02:27:54.608Z,99.90
2018-06-16T02:30:25.177Z,99.90
2018-06-16T02:32:55.943Z,99.90
2018-06-16T02:35:26.521Z,99.90
2018-06-16T02:40:27.171Z,99.90
2018-06-16T02:42:57.798Z,99.90
2018-06-16T02:45:28.585Z,99.90
2018-06-16T02:47:59.490Z,99.90
2018-06-16T02:50:30.384Z,99.90
2018-06-16T02:53:00.955Z,99.90
2018-06-16T02:55:31.576Z,99.90
2018-06-16T03:00:32.450Z,99.90
2018-06-16T03:03:02.954Z,99.90
2018-06-16T03:05:33.787Z,99.90
2018-06-16T03:08:04.365Z,99.90
2018-06-16T03:10:35.302Z,99.90
2018-06-16T03:13:05.769Z,99.90
2018-06-16T03:15:36.371Z,99.90
2018-06-16T03:18:06.849Z,99.90
2018-06-16T03:20:37.495Z,99.90
2018-06-16T03:23:12.352Z,99.90
2018-06-16T03:25:42.915Z,99.90
2018-06-16T03:28:14.065Z,99.90
2018-06-16T03:30:44.658Z,99.90
2018-06-16T03:33:15.410Z,99.90
2018-06-16T03:35:45.791Z,99.90
2018-06-16T03:38:16.494Z,99.90
2018-06-16T03:40:47.083Z,99.90
2018-06-16T03:43:18.004Z,99.90
2018-06-16T03:45:48.651Z,99.90
2018-06-16T03:48:19.300Z,99.90
2018-06-16T03:50:49.792Z,99.90
2018-06-16T03:53:20.370Z,99.90
2018-06-16T03:55:51.024Z,99.90
2018-06-16T03:58:22.903Z,99.90
2018-06-16T04:00:53.580Z,99.90
2018-06-16T04:03:24.181Z,99.90
2018-06-16T04:05:55.939Z,99.90
2018-06-16T04:10:56.784Z,99.90
2018-06-16T04:13:27.436Z,99.90
2018-06-16T04:15:58.075Z,99.90
2018-06-16T04:18:28.996Z,99.90
2018-06-16T04:21:00.228Z,99.90
2018-06-16T04:23:31.615Z,99.90
2018-06-16T04:26:02.422Z,99.90
2018-06-16T04:28:32.922Z,99.90
2018-06-16T04:31:03.363Z,99.90
2018-06-16T04:36:05.267Z,99.90
2018-06-16T04:41:06.145Z,99.90
2018-06-16T04:43:36.838Z,99.90
2018-06-16T04:46:08.161Z,99.90
2018-06-16T04:48:38.599Z,99.90
2018-06-16T04:51:09.302Z,99.90
2018-06-16T04:53:40.159Z,99.90
2018-06-16T04:56:11.268Z,99.90
2018-06-16T04:58:42.246Z,99.90
2018-06-16T05:01:12.934Z,99.90
2018-06-16T05:03:43.452Z,99.90
2018-06-16T05:06:14.023Z,99.90
2018-06-16T05:08:44.670Z,99.90
2018-06-16T05:11:15.403Z,99.90
2018-06-16T05:13:46.432Z,99.90
2018-06-16T05:16:17.192Z,99.90
2018-06-16T05:18:47.983Z,99.90
2018-06-16T05:21:18.550Z,99.90
2018-06-16T05:23:49.431Z,99.90
2018-06-16T05:26:20.181Z,99.90
2018-06-16T05:28:50.968Z,99.90
2018-06-16T05:31:21.873Z,99.90
2018-06-16T05:33:52.572Z,99.90
2018-06-16T05:36:23.182Z,99.90
2018-06-16T05:38:53.799Z,99.90
2018-06-16T05:41:25.366Z,99.90
2018-06-16T05:43:55.976Z,99.90
2018-06-16T05:46:27.432Z,99.90
2018-06-16T05:51:28.288Z,99.50
2018-06-16T05:53:58.993Z,98.60
2018-06-16T05:56:29.609Z,98.90
2018-06-16T05:59:00.233Z,97.20
2018-06-16T06:01:30.833Z,96.60
2018-06-16T06:04:02.200Z,95.90
2018-06-16T06:06:32.955Z,95.60
2018-06-16T06:09:04.443Z,94.50
2018-06-16T06:11:35.296Z,92.80
2018-06-16T06:14:07.880Z,92.20
2018-06-16T06:19:09.245Z,91.90
2018-06-16T06:21:41.008Z,91.50
2018-06-16T06:24:12.371Z,91.10
2018-06-16T06:29:15.199Z,90.00
2018-06-16T06:31:45.807Z,90.00
2018-06-16T06:34:17.421Z,88.80
2018-06-16T06:36:48.377Z,87.90
2018-06-16T06:39:19.189Z,88.80
2018-06-16T06:41:50.528Z,89.60
2018-06-16T06:44:21.706Z,90.30
2018-06-16T06:49:23.705Z,80.70
2018-06-16T06:51:54.231Z,82.10
2018-06-16T06:54:24.752Z,82.70
2018-06-16T06:56:55.807Z,80.00
2018-06-16T06:59:27.502Z,78.70
2018-06-16T07:01:58.882Z,76.20
2018-06-16T07:04:29.641Z,74.60
2018-06-16T07:07:00.474Z,73.80
2018-06-16T07:09:32.237Z,67.60
2018-06-16T07:12:02.929Z,60.20
2018-06-16T07:14:33.456Z,57.00
2018-06-16T07:17:04.212Z,57.50
2018-06-16T07:19:34.887Z,55.90
2018-06-16T07:22:07.402Z,54.80
2018-06-16T07:24:38.137Z,54.10
2018-06-16T07:27:08.716Z,52.90
2018-06-16T07:29:39.293Z,52.50
2018-06-16T07:32:10.156Z,52.70
2018-06-16T07:34:40.801Z,53.90
2018-06-16T07:37:11.626Z,54.20
2018-06-16T07:39:42.352Z,54.60
2018-06-16T07:42:13.052Z,53.80
2018-06-16T07:44:43.515Z,54.70
2018-06-16T07:47:14.258Z,53.80
2018-06-16T07:49:45.100Z,52.60
2018-06-16T07:52:15.854Z,54.10
2018-06-16T07:54:46.574Z,53.30
2018-06-16T07:57:17.611Z,56.10
2018-06-16T07:59:48.344Z,52.50
2018-06-16T08:02:19.457Z,49.80
2018-06-16T08:04:50.273Z,48.30
2018-06-16T08:07:20.897Z,47.50
2018-06-16T08:09:52.563Z,45.30
2018-06-16T08:12:23.294Z,43.30
2018-06-16T08:14:54.015Z,46.60
2018-06-16T08:17:24.578Z,43.90
2018-06-16T08:19:55.166Z,46.40
2018-06-16T08:22:26.036Z,43.70
2018-06-16T08:24:56.762Z,43.70
2018-06-16T08:27:31.055Z,43.40
2018-06-16T08:30:02.141Z,41.60
2018-06-16T08:32:32.898Z,41.50
2018-06-16T08:35:03.703Z,41.40
2018-06-16T08:37:34.252Z,40.00
2018-06-16T08:40:04.960Z,42.30
2018-06-16T08:42:35.702Z,41.50
2018-06-16T08:45:06.345Z,41.40
2018-06-16T08:47:37.733Z,40.60
2018-06-16T08:50:08.372Z,42.00
2018-06-16T08:52:39.001Z,41.90
2018-06-16T08:55:11.425Z,41.50
2018-06-16T08:57:41.989Z,42.30
2018-06-16T09:00:12.614Z,42.90
2018-06-16T09:02:43.218Z,40.70
2018-06-16T09:05:13.987Z,40.70
2018-06-16T09:07:44.792Z,38.20
2018-06-16T09:10:15.418Z,40.60
2018-06-16T09:12:46.173Z,41.90
2018-06-16T09:15:16.713Z,41.00
2018-06-16T09:17:47.341Z,41.80
2018-06-16T09:20:17.913Z,41.50
2018-06-16T09:22:48.707Z,41.60
2018-06-16T09:25:19.799Z,41.70
2018-06-16T09:27:50.484Z,40.40
2018-06-16T09:30:21.138Z,39.20
2018-06-16T09:32:52.052Z,40.40
2018-06-16T09:35:22.781Z,40.30
2018-06-16T09:37:53.345Z,41.00
2018-06-16T09:40:24.080Z,40.30
2018-06-16T09:42:54.826Z,38.30
2018-06-16T09:45:25.549Z,39.20
2018-06-16T09:47:56.531Z,41.90
2018-06-16T09:50:27.226Z,43.10
2018-06-16T09:52:57.935Z,43.20
2018-06-16T09:55:29.124Z,43.00
2018-06-16T09:57:59.864Z,43.40
2018-06-16T10:00:35.721Z,44.70
2018-06-16T10:03:06.404Z,43.40
2018-06-16T10:05:37.134Z,44.30
2018-06-16T10:08:07.973Z,43.80
2018-06-16T10:13:09.012Z,46.50
2018-06-16T10:15:39.683Z,47.40
2018-06-16T10:18:10.268Z,48.30
2018-06-16T10:20:41.070Z,49.10
2018-06-16T10:23:11.734Z,49.70
2018-06-16T10:25:42.444Z,50.10
2018-06-16T10:28:13.365Z,49.60
2018-06-16T10:30:44.166Z,48.40
2018-06-16T10:33:15.788Z,48.30
2018-06-16T10:35:46.577Z,47.60
2018-06-16T10:38:17.939Z,47.50
2018-06-16T10:40:48.531Z,48.10
2018-06-16T10:43:19.283Z,47.70
2018-06-16T10:45:49.893Z,48.60
2018-06-16T10:48:20.443Z,49.60
2018-06-16T10:50:51.094Z,51.00
2018-06-16T10:53:21.576Z,49.20
2018-06-16T10:55:52.274Z,47.80
2018-06-16T10:58:22.842Z,48.80
2018-06-16T11:00:53.475Z,48.60
2018-06-16T11:03:23.963Z,49.40
2018-06-16T11:05:54.553Z,48.90
2018-06-16T11:08:25.301Z,50.10
2018-06-16T11:10:55.910Z,51.20
2018-06-16T11:13:26.480Z,51.30
2018-06-16T11:15:57.241Z,49.00
2018-06-16T11:18:27.864Z,48.40
2018-06-16T11:20:58.570Z,50.20
2018-06-16T11:23:29.361Z,48.00
2018-06-16T11:25:59.909Z,48.90
2018-06-16T11:28:30.448Z,46.10
2018-06-16T11:31:01.196Z,46.90
2018-06-16T11:33:31.914Z,47.70
2018-06-16T11:36:02.790Z,48.30
2018-06-16T11:38:33.468Z,48.90
2018-06-16T11:41:04.238Z,48.00
2018-06-16T11:43:34.768Z,48.90
2018-06-16T11:46:05.485Z,47.10
2018-06-16T11:48:36.345Z,48.50
2018-06-16T11:51:07.983Z,51.30
2018-06-16T11:53:38.701Z,50.20
2018-06-16T11:56:09.588Z,49.70
2018-06-16T11:58:40.460Z,50.60
2018-06-16T12:01:11.024Z,48.50
2018-06-16T12:03:41.752Z,47.10
2018-06-16T12:06:19.173Z,47.60
2018-06-16T12:08:50.272Z,47.10
2018-06-16T12:11:20.997Z,47.10
2018-06-16T12:13:51.667Z,48.80
2018-06-16T12:16:22.346Z,49.00
2018-06-16T12:18:53.581Z,48.40
2018-06-16T12:21:24.187Z,46.20
2018-06-16T12:23:55.053Z,45.70
2018-06-16T12:26:25.965Z,48.20
2018-06-16T12:28:57.137Z,48.20
2018-06-16T12:31:27.991Z,48.10
2018-06-16T12:33:58.516Z,48.40
2018-06-16T12:36:29.145Z,48.90
2018-06-16T12:41:30.261Z,48.00
2018-06-16T12:44:00.873Z,48.50
2018-06-16T12:46:31.645Z,48.40
2018-06-16T12:49:02.122Z,49.60
2018-06-16T12:51:32.724Z,49.50
2018-06-16T12:54:03.258Z,46.90
2018-06-16T12:56:34.050Z,47.00
2018-06-16T12:59:04.653Z,49.60
2018-06-16T13:01:35.254Z,46.70
2018-06-16T13:04:06.049Z,46.70
2018-06-16T13:06:36.752Z,46.60
2018-06-16T13:09:08.227Z,46.40
2018-06-16T13:11:38.859Z,46.70
2018-06-16T13:14:09.601Z,46.30
2018-06-16T13:16:40.325Z,46.10
2018-06-16T13:19:10.957Z,46.50
2018-06-16T13:21:41.541Z,46.70
2018-06-16T13:24:12.537Z,47.00
2018-06-16T13:26:43.154Z,47.70
2018-06-16T13:29:14.009Z,48.00
2018-06-16T13:31:44.598Z,48.60
2018-06-16T13:34:15.448Z,49.00
2018-06-16T13:36:46.168Z,49.40
2018-06-16T13:39:16.900Z,50.00
2018-06-16T13:41:47.748Z,51.20
2018-06-16T13:44:18.308Z,52.10
2018-06-16T13:46:49.036Z,52.30
2018-06-16T13:49:19.653Z,49.80
2018-06-16T13:51:50.265Z,49.40
2018-06-16T13:54:21.345Z,48.80
2018-06-16T13:56:51.985Z,48.40
2018-06-16T13:59:22.875Z,49.30
2018-06-16T14:01:53.541Z,49.20
2018-06-16T14:04:24.746Z,50.10
2018-06-16T14:09:25.711Z,52.10
2018-06-16T14:12:01.127Z,51.90
2018-06-16T14:14:31.718Z,52.70
2018-06-16T14:17:02.307Z,53.40
2018-06-16T14:19:33.091Z,53.70
2018-06-16T14:22:03.782Z,53.50
2018-06-16T14:24:34.448Z,52.50
2018-06-16T14:27:04.987Z,51.70
2018-06-16T14:29:36.202Z,50.90
2018-06-16T14:32:06.890Z,51.70
2018-06-16T14:34:37.719Z,51.80
2018-06-16T14:37:08.561Z,53.20
2018-06-16T14:39:39.333Z,53.20
2018-06-16T14:42:09.985Z,53.40
2018-06-16T14:44:40.901Z,52.40
2018-06-16T14:47:11.497Z,51.70
2018-06-16T14:49:41.974Z,53.50
2018-06-16T14:52:12.827Z,53.00
2018-06-16T14:54:43.303Z,50.60
2018-06-16T14:57:14.051Z,52.10
2018-06-16T15:02:15.103Z,56.50
2018-06-16T15:04:46.154Z,56.50
2018-06-16T15:07:16.638Z,54.50
2018-06-16T15:09:47.323Z,58.20
2018-06-16T15:12:18.140Z,59.80
2018-06-16T15:17:18.734Z,58.40
2018-06-16T15:19:49.582Z,59.50
2018-06-16T15:22:20.418Z,59.50
2018-06-16T15:24:51.307Z,59.80
2018-06-16T15:29:52.142Z,60.10
2018-06-16T15:34:53.264Z,59.90
2018-06-16T15:37:23.833Z,60.20
2018-06-16T15:39:54.577Z,60.40
2018-06-16T15:42:25.883Z,59.50
2018-06-16T15:47:27.213Z,55.60
2018-06-16T15:49:58.120Z,54.90
2018-06-16T15:52:33.957Z,56.30
2018-06-16T15:55:04.704Z,56.80
2018-06-16T15:57:35.523Z,56.70
2018-06-16T16:00:06.566Z,54.80
2018-06-16T16:02:38.682Z,55.00
2018-06-16T16:05:09.783Z,56.10
2018-06-16T16:07:40.426Z,55.10
2018-06-16T16:10:11.137Z,54.30
2018-06-16T16:12:43.005Z,54.20
2018-06-16T16:15:13.421Z,56.80
2018-06-16T16:17:45.597Z,52.80
2018-06-16T16:20:16.564Z,52.10
2018-06-16T16:22:48.340Z,55.10
2018-06-16T16:25:19.171Z,54.20
2018-06-16T16:27:49.916Z,54.00
2018-06-16T16:30:20.562Z,52.40
2018-06-16T16:32:51.887Z,51.90
2018-06-16T16:35:22.899Z,53.00
2018-06-16T16:37:54.294Z,57.40
2018-06-16T16:40:25.693Z,52.60
2018-06-16T16:42:56.419Z,52.40
2018-06-16T16:45:28.092Z,53.40
2018-06-16T16:47:59.239Z,56.60
2018-06-16T16:50:30.104Z,53.10
2018-06-16T16:53:00.885Z,55.10
2018-06-16T16:55:31.752Z,53.60
2018-06-16T16:58:02.296Z,50.70
2018-06-16T17:00:33.150Z,51.40
2018-06-16T17:03:03.819Z,52.70
2018-06-16T17:05:37.309Z,51.00
2018-06-16T17:08:07.991Z,53.60
2018-06-16T17:10:38.904Z,53.10
2018-06-16T17:13:09.665Z,53.40
2018-06-16T17:15:40.302Z,55.20
2018-06-16T17:18:10.915Z,53.50
2018-06-16T17:20:41.554Z,53.80
2018-06-16T17:23:12.465Z,54.50
2018-06-16T17:25:43.125Z,54.90
2018-06-16T17:28:13.726Z,59.00
2018-06-16T17:30:44.415Z,57.70
2018-06-16T17:33:15.038Z,60.60
2018-06-16T17:35:45.635Z,63.30
2018-06-16T17:38:16.373Z,62.50
2018-06-16T17:40:46.987Z,64.00
2018-06-16T17:43:17.828Z,66.20
2018-06-16T17:45:48.629Z,68.40
2018-06-16T17:48:19.430Z,70.50
2018-06-16T17:50:50.417Z,71.30
2018-06-16T17:53:21.030Z,71.80
2018-06-16T17:55:51.799Z,74.90
2018-06-16T17:58:22.491Z,76.60
2018-06-16T18:00:53.121Z,77.40
2018-06-16T18:03:23.662Z,78.90
2018-06-16T18:05:54.336Z,80.60
2018-06-16T18:08:25.024Z,82.90
2018-06-16T18:10:55.867Z,85.70
2018-06-16T18:13:26.463Z,87.90
2018-06-16T18:15:57.728Z,88.30
2018-06-16T18:18:28.390Z,90.40
2018-06-16T18:20:59.039Z,91.30
2018-06-16T18:23:29.727Z,92.00
2018-06-16T18:26:00.422Z,93.00
2018-06-16T18:28:31.108Z,93.90
2018-06-16T18:31:01.859Z,95.30
2018-06-16T18:33:32.700Z,95.80
2018-06-16T18:36:03.341Z,96.00
2018-06-16T18:38:34.080Z,96.40
2018-06-16T18:41:07.614Z,96.10
2018-06-16T18:48:38.657Z,95.90
2018-06-16T18:51:09.276Z,95.30
2018-06-16T18:53:39.880Z,95.50
2018-06-16T18:58:41.027Z,95.30
2018-06-16T19:01:11.733Z,95.20
2018-06-16T19:03:42.427Z,94.90
2018-06-16T19:06:13.558Z,95.30
2018-06-16T19:08:44.115Z,95.30
2018-06-16T19:11:13.771Z,95.40
2018-06-16T19:13:44.145Z,95.60
2018-06-16T19:16:15.047Z,95.40
2018-06-16T19:18:45.133Z,95.60
2018-06-16T19:21:15.593Z,96.00
2018-06-16T19:23:46.240Z,96.40
2018-06-16T19:28:47.221Z,96.80
2018-06-16T19:31:17.819Z,97.20
2018-06-16T19:33:48.525Z,96.90
2018-06-16T19:36:19.081Z,97.60
2018-06-16T19:38:50.676Z,98.60
2018-06-16T19:41:21.366Z,99.40
2018-06-16T19:43:51.984Z,99.90
2018-06-16T19:46:22.622Z,99.90
2018-06-16T19:48:53.447Z,99.90
2018-06-16T19:51:24.078Z,99.90
2018-06-16T19:53:54.858Z,99.90
2018-06-16T19:56:25.430Z,99.90
2018-06-16T19:58:56.487Z,99.90
2018-06-16T20:03:58.106Z,99.90
2018-06-16T20:06:29.137Z,99.90
2018-06-16T20:08:59.860Z,99.90
2018-06-16T20:11:31.249Z,99.90
2018-06-16T20:14:02.506Z,99.90
2018-06-16T20:16:33.376Z,99.90
2018-06-16T20:19:04.197Z,99.90
2018-06-16T20:21:34.826Z,99.90
2018-06-16T20:24:05.573Z,99.90
2018-06-16T20:26:36.085Z,99.90
2018-06-16T20:29:07.133Z,99.90
2018-06-16T20:31:38.015Z,99.90
2018-06-16T20:34:08.616Z,99.90
2018-06-16T20:36:39.380Z,99.90
2018-06-16T20:39:09.886Z,99.90
2018-06-16T20:41:40.652Z,99.90
2018-06-16T20:44:11.564Z,99.90
2018-06-16T20:46:42.262Z,99.90
2018-06-16T20:49:13.014Z,99.90
2018-06-16T20:51:43.832Z,99.90
2018-06-16T20:54:21.174Z,99.70
2018-06-16T20:56:52.124Z,99.90
2018-06-16T20:59:22.823Z,99.70
2018-06-16T21:01:53.452Z,99.90
2018-06-16T21:04:24.784Z,99.90
2018-06-16T21:06:55.371Z,99.90
2018-06-16T21:09:26.270Z,99.90
2018-06-16T21:11:56.787Z,99.90
2018-06-16T21:14:27.450Z,99.60
2018-06-16T21:16:58.217Z,99.70
2018-06-16T21:19:28.831Z,99.30
2018-06-16T21:21:59.373Z,98.60
2018-06-16T21:24:30.094Z,97.80
2018-06-16T21:27:00.956Z,97.30
2018-06-16T21:29:31.625Z,96.70
2018-06-16T21:32:02.581Z,96.80
2018-06-16T21:34:33.282Z,96.50
2018-06-16T21:37:03.924Z,95.90
2018-06-16T21:39:35.029Z,95.60
2018-06-16T21:42:05.710Z,95.80
2018-06-16T21:44:36.270Z,95.70
2018-06-16T21:47:07.062Z,95.60
2018-06-16T21:49:38.441Z,95.50
2018-06-16T21:52:09.232Z,95.30
2018-06-16T21:54:39.881Z,95.40
2018-06-16T21:57:11.758Z,95.70
2018-06-16T21:59:44.101Z,95.40
2018-06-16T22:02:14.946Z,95.40
2018-06-16T22:04:45.773Z,95.80
2018-06-16T22:09:49.705Z,95.80
2018-06-16T22:12:20.376Z,96.10
2018-06-16T22:14:51.068Z,96.30
2018-06-16T22:17:21.789Z,96.80
2018-06-16T22:19:52.438Z,97.20
2018-06-16T22:22:22.969Z,97.50
2018-06-16T22:24:53.585Z,97.90
2018-06-16T22:27:24.258Z,97.90
2018-06-16T22:29:54.939Z,98.10
2018-06-16T22:32:25.476Z,98.10
2018-06-16T22:34:56.131Z,98.20
2018-06-16T22:37:26.863Z,97.90
2018-06-16T22:39:57.574Z,98.00
2018-06-16T22:42:28.300Z,98.10
2018-06-16T22:44:58.980Z,98.40
2018-06-16T22:47:29.712Z,98.00
2018-06-16T22:50:00.405Z,98.20
2018-06-16T22:52:31.023Z,98.10
2018-06-16T22:55:01.619Z,98.30
2018-06-16T22:57:32.220Z,98.30
2018-06-16T23:00:03.047Z,98.40
2018-06-16T23:02:34.179Z,98.50
2018-06-16T23:05:04.837Z,98.40
2018-06-16T23:07:35.474Z,98.60
2018-06-16T23:10:06.193Z,98.60
2018-06-16T23:12:36.933Z,99.30
2018-06-16T23:15:08.377Z,99.70
2018-06-16T23:17:39.118Z,99.90
2018-06-16T23:20:09.642Z,99.90
2018-06-16T23:22:40.352Z,99.90
2018-06-16T23:25:10.870Z,99.90
2018-06-16T23:27:41.936Z,99.90
2018-06-16T23:32:42.813Z,99.90
2018-06-16T23:35:13.387Z,99.90
2018-06-16T23:37:44.247Z,99.90
2018-06-16T23:40:14.927Z,99.90
2018-06-16T23:42:45.563Z,99.90
2018-06-16T23:45:16.089Z,99.90
2018-06-16T23:47:46.604Z,99.90
2018-06-16T23:50:18.119Z,99.90
2018-06-16T23:52:48.861Z,99.90
2018-06-16T23:55:19.459Z,99.90
2018-06-16T23:57:49.954Z,99.90
